createdAt,value
2022-08-09T00:00:27.764Z,102594.62
2022-08-09T00:06:15.933Z,102598.63
2022-08-09T00:10:55.416Z,102607.00
2022-08-09T00:16:03.471Z,102599.03
2022-08-09T00:21:09.707Z,102590.94
2022-08-09T00:26:17.161Z,102588.88
2022-08-09T00:31:58.195Z,102583.00
2022-08-09T00:36:49.351Z,102586.66
2022-08-09T00:44:14.737Z,102592.59
2022-08-09T00:47:24.994Z,102587.09
2022-08-09T00:52:31.087Z,102591.16
2022-08-09T00:57:35.816Z,102587.34
2022-08-09T01:02:47.569Z,102584.34
2022-08-09T01:08:00.247Z,102591.12
2022-08-09T01:13:13.483Z,102595.13
2022-08-09T01:18:30.619Z,102595.09
2022-08-09T01:24:01.699Z,102591.19
2022-08-09T01:29:12.878Z,102595.16
2022-08-09T01:34:22.500Z,102596.69
2022-08-09T01:39:28.541Z,102595.56
2022-08-09T01:44:34.998Z,102590.25
2022-08-09T01:49:39.903Z,102593.63
2022-08-09T01:54:48.611Z,102596.03
2022-08-09T01:59:59.907Z,102595.75
2022-08-09T02:05:15.590Z,102596.47
2022-08-09T02:10:28.573Z,102603.22
2022-08-09T02:15:49.392Z,102604.75
2022-08-09T02:21:00.300Z,102606.25
2022-08-09T02:26:05.968Z,102594.78
2022-08-09T02:31:19.674Z,102598.94
2022-08-09T02:36:32.304Z,102597.81
2022-08-09T02:41:42.580Z,102596.75
2022-08-09T02:46:52.264Z,102594.69
2022-08-09T02:51:59.520Z,102593.59
2022-08-09T02:57:13.596Z,102593.47
2022-08-09T03:02:30.089Z,102589.78
2022-08-09T03:07:37.296Z,102587.81
2022-08-09T03:12:42.971Z,102587.59
2022-08-09T03:17:58.706Z,102585.75
2022-08-09T03:23:15.329Z,102589.97
2022-08-09T03:28:27.360Z,102587.62
2022-08-09T03:33:54.948Z,102597.19
2022-08-09T03:38:57.834Z,102596.22
2022-08-09T03:44:07.668Z,102590.53
2022-08-09T03:49:17.391Z,102594.56
2022-08-09T03:54:29.354Z,102592.66
2022-08-09T03:59:52.783Z,102589.06
2022-08-09T04:05:05.920Z,102597.34
2022-08-09T04:10:10.887Z,102581.53
2022-08-09T04:15:17.303Z,102589.28
2022-08-09T04:20:41.833Z,102595.91
2022-08-09T04:25:51.755Z,102593.03
2022-08-09T04:30:56.539Z,102599.97
2022-08-09T04:36:01.720Z,102608.47
2022-08-09T04:41:07.124Z,102612.56
2022-08-09T04:46:19.273Z,102612.41
2022-08-09T04:51:40.664Z,102619.28
2022-08-09T04:56:44.432Z,102618.44
2022-08-09T05:01:48.980Z,102626.34
2022-08-09T05:06:54.090Z,102622.78
2022-08-09T05:11:59.903Z,102630.47
2022-08-09T05:17:03.992Z,102627.53
2022-08-09T05:22:34.915Z,102627.75
2022-08-09T05:27:45.616Z,102631.59
2022-08-09T05:32:53.180Z,102637.84
2022-08-09T05:37:58.589Z,102640.16
2022-08-09T05:43:02.277Z,102639.19
2022-08-09T05:48:08.456Z,102641.22
2022-08-09T05:53:31.559Z,102647.44
2022-08-09T05:58:37.242Z,102643.47
2022-08-09T06:03:44.062Z,102644.44
2022-08-09T06:08:59.655Z,102654.38
2022-08-09T06:14:03.809Z,102653.22
2022-08-09T06:19:07.567Z,102658.97
2022-08-09T06:24:12.699Z,102670.69
2022-08-09T06:29:16.515Z,102664.13
2022-08-09T06:34:22.390Z,102665.53
2022-08-09T06:39:49.056Z,102673.00
2022-08-09T06:44:54.502Z,102674.22
2022-08-09T06:50:14.075Z,102679.88
2022-08-09T06:55:24.202Z,102680.44
2022-08-09T07:00:50.918Z,102683.56
2022-08-09T07:06:02.199Z,102680.78
2022-08-09T07:11:12.706Z,102684.34
2022-08-09T07:16:42.092Z,102686.16
2022-08-09T07:21:56.006Z,102674.72
2022-08-09T07:27:03.900Z,102682.62
2022-08-09T07:32:15.000Z,102682.53
2022-08-09T07:37:19.659Z,102676.28
2022-08-09T07:42:32.702Z,102679.56
2022-08-09T07:47:39.454Z,102682.09
2022-08-09T07:52:53.558Z,102684.63
2022-08-09T07:58:04.852Z,102691.37
2022-08-09T08:03:17.846Z,102686.03
2022-08-09T08:09:02.634Z,102689.44
2022-08-09T08:13:57.285Z,102690.81
2022-08-09T08:19:03.179Z,102687.13
2022-08-09T08:24:12.159Z,102681.69
2022-08-09T08:29:27.388Z,102689.44
2022-08-09T08:34:34.428Z,102682.22
2022-08-09T08:39:43.723Z,102687.13
2022-08-09T08:44:53.108Z,102678.91
2022-08-09T08:49:58.104Z,102682.12
2022-08-09T08:55:07.591Z,102697.50
2022-08-09T09:00:20.742Z,102697.16
2022-08-09T09:05:57.982Z,102697.59
2022-08-09T09:10:57.585Z,102706.03
2022-08-09T09:16:03.510Z,102700.34
2022-08-09T09:21:08.184Z,102699.94
2022-08-09T09:26:13.340Z,102703.84
2022-08-09T09:32:07.078Z,102705.19
2022-08-09T09:36:51.157Z,102704.75
2022-08-09T09:41:58.993Z,102702.56
2022-08-09T09:47:09.035Z,102699.38
2022-08-09T09:52:33.519Z,102691.75
2022-08-09T09:58:03.742Z,102694.84
2022-08-09T10:03:11.426Z,102709.44
2022-08-09T10:08:27.738Z,102695.00
2022-08-09T10:13:43.344Z,102707.25
2022-08-09T10:18:55.785Z,102689.53
2022-08-09T10:24:05.061Z,102701.81
2022-08-09T10:29:37.158Z,102688.81
2022-08-09T10:34:35.985Z,102686.22
2022-08-09T10:39:49.181Z,102683.25
2022-08-09T10:44:58.688Z,102674.94
2022-08-09T10:50:14.977Z,102678.06
2022-08-09T10:55:23.814Z,102675.84
2022-08-09T11:00:50.947Z,102673.53
2022-08-09T11:06:22.917Z,102669.63
2022-08-09T11:11:26.932Z,102669.25
2022-08-09T11:16:41.028Z,102675.44
2022-08-09T11:21:55.171Z,102671.34
2022-08-09T11:28:05.324Z,102667.34
2022-08-09T11:33:01.348Z,102663.13
2022-08-09T11:38:18.342Z,102657.66
2022-08-09T11:43:41.938Z,102639.59
2022-08-09T11:48:50.129Z,102646.00
2022-08-09T11:54:21.370Z,102640.78
2022-08-09T11:59:33.664Z,102638.81
2022-08-09T12:04:38.357Z,102637.25
2022-08-09T12:09:50.918Z,102621.66
2022-08-09T12:15:04.290Z,102623.06
2022-08-09T12:20:19.800Z,102618.16
2022-08-09T12:25:36.307Z,102611.06
2022-08-09T12:30:42.945Z,102609.34
2022-08-09T12:35:48.581Z,102614.81
2022-08-09T12:40:56.836Z,102607.78
2022-08-09T12:46:01.760Z,102592.66
2022-08-09T12:51:07.900Z,102596.19
2022-08-09T12:56:43.433Z,102591.09
2022-08-09T13:01:42.864Z,102571.41
2022-08-09T13:06:54.158Z,102575.87
2022-08-09T13:12:04.250Z,102591.84
2022-08-09T13:17:16.229Z,102573.94
2022-08-09T13:22:38.385Z,102577.44
2022-08-09T13:27:55.851Z,102562.19
2022-08-09T13:33:00.167Z,102559.22
2022-08-09T13:38:04.705Z,102560.12
2022-08-09T13:43:22.615Z,102559.22
2022-08-09T13:48:39.569Z,102552.06
2022-08-09T13:53:46.182Z,102547.66
2022-08-09T13:58:53.277Z,102545.69
2022-08-09T14:04:02.931Z,102539.41
2022-08-09T14:09:09.201Z,102535.66
2022-08-09T14:14:26.885Z,102543.62
2022-08-09T14:19:33.490Z,102534.69
2022-08-09T14:24:46.895Z,102541.34
2022-08-09T14:30:34.458Z,102536.19
2022-08-09T14:35:22.610Z,102518.44
2022-08-09T14:40:38.790Z,102529.31
2022-08-09T14:46:57.638Z,102517.63
2022-08-09T14:51:15.780Z,102522.03
2022-08-09T14:56:19.651Z,102518.47
2022-08-09T15:01:26.990Z,102515.94
2022-08-09T15:06:30.811Z,102504.41
2022-08-09T15:11:34.598Z,102510.69
2022-08-09T15:16:40.044Z,102507.06
2022-08-09T15:21:58.960Z,102507.38
2022-08-09T15:27:06.075Z,102498.22
2022-08-09T15:32:28.245Z,102501.06
2022-08-09T15:37:57.330Z,102498.38
2022-08-09T15:43:00.611Z,102497.56
2022-08-09T15:48:20.236Z,102496.03
2022-08-09T15:54:05.189Z,102494.28
2022-08-09T15:58:56.321Z,102483.84
2022-08-09T16:04:01.415Z,102489.53
2022-08-09T16:09:06.904Z,102482.50
2022-08-09T16:14:10.669Z,102483.63
2022-08-09T16:19:19.222Z,102482.03
2022-08-09T16:24:33.097Z,102476.78
2022-08-09T16:29:49.788Z,102463.47
2022-08-09T16:34:58.110Z,102473.97
2022-08-09T16:40:05.291Z,102473.87
2022-08-09T16:45:10.594Z,102475.59
2022-08-09T16:50:32.462Z,102468.84
2022-08-09T16:56:00.344Z,102467.03
2022-08-09T17:01:01.735Z,102470.31
2022-08-09T17:06:31.304Z,102469.84
2022-08-09T17:11:41.138Z,102471.84
2022-08-09T17:16:45.995Z,102460.81
2022-08-09T17:21:54.692Z,102462.38
2022-08-09T17:26:59.530Z,102464.75
2022-08-09T17:32:03.299Z,102472.41
2022-08-09T17:37:19.243Z,102469.16
2022-08-09T17:42:41.984Z,102464.97
2022-08-09T17:47:49.152Z,102476.69
2022-08-09T17:52:54.794Z,102483.00
2022-08-09T17:58:03.796Z,102492.00
2022-08-09T18:03:09.477Z,102493.84
2022-08-09T18:08:14.766Z,102492.06
2022-08-09T18:13:43.389Z,102484.09
2022-08-09T18:18:49.111Z,102493.88
2022-08-09T18:24:12.582Z,102491.22
2022-08-09T18:30:42.421Z,102494.69
2022-08-09T18:34:43.441Z,102498.22
2022-08-09T18:39:48.986Z,102501.69
2022-08-09T18:44:53.684Z,102500.75
2022-08-09T18:49:59.950Z,102505.13
2022-08-09T18:55:13.622Z,102517.44
2022-08-09T19:00:20.286Z,102514.69
2022-08-09T19:05:41.423Z,102519.03
2022-08-09T19:10:50.736Z,102529.47
2022-08-09T19:15:55.613Z,102527.56
2022-08-09T19:21:00.559Z,102522.16
2022-08-09T19:26:06.132Z,102524.66
2022-08-09T19:31:10.586Z,102527.09
2022-08-09T19:36:14.368Z,102526.97
2022-08-09T19:41:33.017Z,102525.97
2022-08-09T19:46:50.921Z,102536.38
2022-08-09T19:51:57.890Z,102533.56
2022-08-09T19:57:02.991Z,102532.53
2022-08-09T20:02:17.118Z,102529.66
2022-08-09T20:07:57.070Z,102532.16
2022-08-09T20:12:55.924Z,102534.50
2022-08-09T20:18:04.778Z,102531.75
2022-08-09T20:23:11.798Z,102535.84
2022-08-09T20:28:24.392Z,102527.59
2022-08-09T20:33:39.107Z,102521.31
2022-08-09T20:44:10.806Z,102541.25
2022-08-09T20:49:15.954Z,102543.69
2022-08-09T20:54:21.913Z,102544.41
2022-08-09T21:00:19.229Z,102544.28
2022-08-09T21:05:55.007Z,102543.09
2022-08-09T21:10:18.649Z,102552.53
2022-08-09T21:15:34.134Z,102550.56
2022-08-09T21:20:38.663Z,102546.03
2022-08-09T21:26:00.082Z,102552.00
2022-08-09T21:31:19.489Z,102555.41
2022-08-09T21:36:28.048Z,102554.41
2022-08-09T21:42:03.810Z,102556.88
2022-08-09T21:47:04.411Z,102554.69
2022-08-09T21:52:14.914Z,102558.97
2022-08-09T21:57:36.999Z,102548.25
2022-08-09T22:02:51.284Z,102551.47
2022-08-09T22:08:02.415Z,102552.94
2022-08-09T22:13:11.416Z,102556.22
2022-08-09T22:18:18.628Z,102556.88
2022-08-09T22:23:22.364Z,102558.53
2022-08-09T22:28:29.858Z,102556.47
2022-08-09T22:33:48.891Z,102556.88
2022-08-09T22:38:59.315Z,102560.34
2022-08-09T22:44:04.904Z,102561.94
2022-08-09T22:49:14.783Z,102558.25
2022-08-09T22:54:21.224Z,102559.81
2022-08-09T22:59:57.402Z,102561.34
2022-08-09T23:04:53.785Z,102561.91
2022-08-09T23:09:58.264Z,102559.13
2022-08-09T23:15:03.630Z,102559.88
2022-08-09T23:20:11.783Z,102557.06
2022-08-09T23:25:15.644Z,102563.00
2022-08-09T23:30:19.952Z,102555.66
2022-08-09T23:35:25.005Z,102553.88
2022-08-09T23:40:28.967Z,102554.47
2022-08-09T23:45:37.164Z,102554.38
2022-08-09T23:50:46.670Z,102551.59
2022-08-09T23:55:55.359Z,102556.63
